Upstream stations:
Downstream station:
SHEF ID: WANO2 Cimarron River near Waynoka, OK
STATION TYPE:
Regulating: Stage = 9.00, Flow = 4032
PRECIP STAGE RIV-FLOW BAT-LOAD
in ft cfs volt
Ccp-Rev Ccp-Rev Ccp-Rev Ccp-Rev
(US/Central)
02/03 00:00 0.00 5.72 49 12.65
02/03 01:00 0.00 5.72 49 12.65
02/03 02:00 0.00 5.71 48 12.57
02/03 03:00 0.00 5.73 51 12.57
02/03 04:00 0.00 5.73 51 12.49
02/03 05:00 0.00 5.62 32 12.41
02/03 06:00 0.00 5.48 6 12.41
02/03 07:00 0.00 5.45 4 12.33
02/03 08:00 0.00 5.46 4 12.33
02/03 09:00 0.00 5.46 4 12.41
02/03 10:00 0.00 5.47 5 12.41
02/03 11:00 0.00 5.47 5 12.73
02/03 12:00 0.00 5.47 5 13.05
02/03 13:00 0.00 5.46 4 13.29
02/03 14:00 0.00 5.46 4 13.37
02/03 15:00 0.00 5.47 5 13.44
02/03 16:00 0.00 5.48 6 13.53
02/03 17:00 0.01 5.49 7 13.44
02/03 18:00 0.00 5.51 10 13.21
02/03 19:00 0.00 5.52 11 12.97
02/03 20:00 0.00 5.53 13 12.73
02/03 21:00 0.00 5.52 11 12.65
02/03 22:00 0.00 5.53 13 12.65
02/03 23:00 0.00 5.57 19 12.57